sensor_id;sensor_type;location;lat;lon;timestamp;P1;durP1;ratioP1;P2;durP2;ratioP2
65715;SDS011;63484;52.054;8.518;2023-06-14T00:04:30;3.00;;;2.00;;
65715;SDS011;63484;52.054;8.518;2023-06-14T00:09:31;3.75;;;1.90;;
65715;SDS011;63484;52.054;8.518;2023-06-14T00:14:37;5.13;;;2.10;;
65715;SDS011;63484;52.054;8.518;2023-06-14T00:19:38;4.87;;;2.40;;
65715;SDS011;63484;52.054;8.518;2023-06-14T00:24:42;4.97;;;2.10;;
65715;SDS011;63484;52.054;8.518;2023-06-14T00:29:45;6.82;;;2.35;;
65715;SDS011;63484;52.054;8.518;2023-06-14T00:34:49;3.60;;;2.30;;
65715;SDS011;63484;52.054;8.518;2023-06-14T00:39:51;3.95;;;2.00;;
65715;SDS011;63484;52.054;8.518;2023-06-14T00:44:54;7.35;;;2.67;;
65715;SDS011;63484;52.054;8.518;2023-06-14T00:49:56;3.27;;;2.00;;
65715;SDS011;63484;52.054;8.518;2023-06-14T00:54:59;5.40;;;2.20;;
65715;SDS011;63484;52.054;8.518;2023-06-14T01:00:02;5.72;;;2.38;;
65715;SDS011;63484;52.054;8.518;2023-06-14T01:05:07;8.73;;;2.35;;
65715;SDS011;63484;52.054;8.518;2023-06-14T01:10:18;4.68;;;2.10;;
65715;SDS011;63484;52.054;8.518;2023-06-14T01:15:34;5.15;;;2.25;;
65715;SDS011;63484;52.054;8.518;2023-06-14T01:20:40;4.40;;;2.20;;
65715;SDS011;63484;52.054;8.518;2023-06-14T01:25:43;6.90;;;2.38;;
65715;SDS011;63484;52.054;8.518;2023-06-14T01:30:52;6.82;;;2.38;;
65715;SDS011;63484;52.054;8.518;2023-06-14T01:35:55;5.50;;;2.33;;
65715;SDS011;63484;52.054;8.518;2023-06-14T01:40:59;4.95;;;2.40;;
65715;SDS011;63484;52.054;8.518;2023-06-14T01:46:02;3.45;;;2.60;;
65715;SDS011;63484;52.054;8.518;2023-06-14T01:51:07;7.78;;;2.65;;
65715;SDS011;63484;52.054;8.518;2023-06-14T01:56:10;4.75;;;2.45;;
65715;SDS011;63484;52.054;8.518;2023-06-14T02:01:12;4.20;;;2.30;;
65715;SDS011;63484;52.054;8.518;2023-06-14T02:06:19;6.85;;;2.58;;
65715;SDS011;63484;52.054;8.518;2023-06-14T02:11:22;3.38;;;2.65;;
65715;SDS011;63484;52.054;8.518;2023-06-14T02:16:24;7.70;;;2.60;;
65715;SDS011;63484;52.054;8.518;2023-06-14T02:21:28;3.60;;;2.40;;
65715;SDS011;63484;52.054;8.518;2023-06-14T02:26:31;8.32;;;2.70;;
65715;SDS011;63484;52.054;8.518;2023-06-14T02:31:33;3.93;;;2.80;;
65715;SDS011;63484;52.054;8.518;2023-06-14T02:36:35;7.25;;;2.83;;
65715;SDS011;63484;52.054;8.518;2023-06-14T02:41:43;4.53;;;2.90;;
65715;SDS011;63484;52.054;8.518;2023-06-14T02:46:45;5.40;;;2.90;;
65715;SDS011;63484;52.054;8.518;2023-06-14T02:51:46;4.00;;;2.40;;
65715;SDS011;63484;52.054;8.518;2023-06-14T02:56:52;5.18;;;2.63;;
65715;SDS011;63484;52.054;8.518;2023-06-14T03:01:54;7.40;;;2.50;;
65715;SDS011;63484;52.054;8.518;2023-06-14T03:06:56;6.53;;;3.13;;
65715;SDS011;63484;52.054;8.518;2023-06-14T03:12:00;5.53;;;2.80;;
65715;SDS011;63484;52.054;8.518;2023-06-14T03:17:03;5.82;;;2.50;;
65715;SDS011;63484;52.054;8.518;2023-06-14T03:22:08;6.57;;;2.90;;
65715;SDS011;63484;52.054;8.518;2023-06-14T03:27:14;8.60;;;2.70;;
65715;SDS011;63484;52.054;8.518;2023-06-14T03:32:19;5.80;;;2.65;;
65715;SDS011;63484;52.054;8.518;2023-06-14T03:37:21;4.75;;;2.85;;
65715;SDS011;63484;52.054;8.518;2023-06-14T03:42:24;5.60;;;3.20;;
65715;SDS011;63484;52.054;8.518;2023-06-14T03:47:27;4.80;;;2.67;;
65715;SDS011;63484;52.054;8.518;2023-06-14T03:52:31;5.53;;;2.67;;
65715;SDS011;63484;52.054;8.518;2023-06-14T03:57:35;3.75;;;2.75;;
65715;SDS011;63484;52.054;8.518;2023-06-14T04:02:41;5.90;;;2.90;;
65715;SDS011;63484;52.054;8.518;2023-06-14T04:07:45;5.10;;;2.40;;
65715;SDS011;63484;52.054;8.518;2023-06-14T04:17:52;5.45;;;2.92;;
65715;SDS011;63484;52.054;8.518;2023-06-14T04:22:57;4.75;;;2.63;;
65715;SDS011;63484;52.054;8.518;2023-06-14T04:28:14;6.70;;;2.90;;
65715;SDS011;63484;52.054;8.518;2023-06-14T04:33:16;4.38;;;2.92;;
65715;SDS011;63484;52.054;8.518;2023-06-14T04:38:19;5.53;;;2.78;;
65715;SDS011;63484;52.054;8.518;2023-06-14T04:43:28;5.72;;;2.67;;
65715;SDS011;63484;52.054;8.518;2023-06-14T04:48:31;3.38;;;2.40;;
65715;SDS011;63484;52.054;8.518;2023-06-14T04:53:35;6.25;;;2.92;;
65715;SDS011;63484;52.054;8.518;2023-06-14T04:58:39;4.50;;;2.65;;
65715;SDS011;63484;52.054;8.518;2023-06-14T05:03:41;6.05;;;2.63;;
65715;SDS011;63484;52.054;8.518;2023-06-14T05:13:48;3.83;;;2.20;;
65715;SDS011;63484;52.054;8.518;2023-06-14T05:18:51;5.93;;;2.05;;
65715;SDS011;63484;52.054;8.518;2023-06-14T05:23:52;6.78;;;2.25;;
65715;SDS011;63484;52.054;8.518;2023-06-14T05:28:55;2.80;;;2.08;;
65715;SDS011;63484;52.054;8.518;2023-06-14T05:33:57;6.32;;;1.73;;
65715;SDS011;63484;52.054;8.518;2023-06-14T05:38:59;3.60;;;2.08;;
65715;SDS011;63484;52.054;8.518;2023-06-14T05:44:04;4.57;;;1.90;;
65715;SDS011;63484;52.054;8.518;2023-06-14T05:49:06;3.05;;;1.60;;
65715;SDS011;63484;52.054;8.518;2023-06-14T05:54:08;11.30;;;1.90;;
65715;SDS011;63484;52.054;8.518;2023-06-14T05:59:13;5.18;;;1.90;;
65715;SDS011;63484;52.054;8.518;2023-06-14T06:04:15;2.38;;;1.58;;
65715;SDS011;63484;52.054;8.518;2023-06-14T06:09:16;3.25;;;1.50;;
65715;SDS011;63484;52.054;8.518;2023-06-14T06:14:20;1.80;;;1.33;;
65715;SDS011;63484;52.054;8.518;2023-06-14T06:19:24;1.67;;;1.40;;
65715;SDS011;63484;52.054;8.518;2023-06-14T06:24:29;8.60;;;1.58;;
65715;SDS011;63484;52.054;8.518;2023-06-14T06:29:32;3.97;;;1.40;;
65715;SDS011;63484;52.054;8.518;2023-06-14T06:34:33;3.42;;;1.45;;
65715;SDS011;63484;52.054;8.518;2023-06-14T06:39:38;4.22;;;1.20;;
65715;SDS011;63484;52.054;8.518;2023-06-14T06:44:41;1.77;;;1.17;;
65715;SDS011;63484;52.054;8.518;2023-06-14T06:49:42;2.45;;;1.25;;
65715;SDS011;63484;52.054;8.518;2023-06-14T06:54:46;7.00;;;1.10;;
65715;SDS011;63484;52.054;8.518;2023-06-14T06:59:50;2.95;;;1.70;;
65715;SDS011;63484;52.054;8.518;2023-06-14T07:04:52;1.50;;;1.13;;
65715;SDS011;63484;52.054;8.518;2023-06-14T07:09:53;7.77;;;1.40;;
65715;SDS011;63484;52.054;8.518;2023-06-14T07:14:58;4.47;;;1.00;;
65715;SDS011;63484;52.054;8.518;2023-06-14T07:20:03;0.90;;;0.90;;
65715;SDS011;63484;52.054;8.518;2023-06-14T07:25:13;2.78;;;1.05;;
65715;SDS011;63484;52.054;8.518;2023-06-14T07:30:16;1.83;;;0.93;;
65715;SDS011;63484;52.054;8.518;2023-06-14T07:35:18;3.55;;;0.95;;
65715;SDS011;63484;52.054;8.518;2023-06-14T07:40:22;2.65;;;1.00;;
65715;SDS011;63484;52.054;8.518;2023-06-14T07:45:25;3.00;;;1.20;;
65715;SDS011;63484;52.054;8.518;2023-06-14T07:50:26;5.85;;;1.25;;
65715;SDS011;63484;52.054;8.518;2023-06-14T07:55:30;2.65;;;1.00;;
65715;SDS011;63484;52.054;8.518;2023-06-14T08:00:37;3.17;;;1.17;;
65715;SDS011;63484;52.054;8.518;2023-06-14T08:05:39;2.33;;;1.77;;
65715;SDS011;63484;52.054;8.518;2023-06-14T08:10:40;5.63;;;1.20;;
65715;SDS011;63484;52.054;8.518;2023-06-14T08:15:43;3.10;;;1.00;;
65715;SDS011;63484;52.054;8.518;2023-06-14T08:20:45;3.95;;;1.20;;
65715;SDS011;63484;52.054;8.518;2023-06-14T08:25:49;6.32;;;1.38;;
65715;SDS011;63484;52.054;8.518;2023-06-14T08:30:52;3.03;;;1.27;;
65715;SDS011;63484;52.054;8.518;2023-06-14T08:35:54;3.35;;;1.30;;
65715;SDS011;63484;52.054;8.518;2023-06-14T08:40:56;2.65;;;1.13;;
65715;SDS011;63484;52.054;8.518;2023-06-14T08:46:01;1.40;;;1.20;;
65715;SDS011;63484;52.054;8.518;2023-06-14T08:51:05;3.38;;;1.33;;
65715;SDS011;63484;52.054;8.518;2023-06-14T08:56:07;1.92;;;1.48;;
65715;SDS011;63484;52.054;8.518;2023-06-14T09:01:14;1.15;;;1.05;;
65715;SDS011;63484;52.054;8.518;2023-06-14T09:06:17;2.22;;;1.13;;
65715;SDS011;63484;52.054;8.518;2023-06-14T09:11:25;1.35;;;1.20;;
65715;SDS011;63484;52.054;8.518;2023-06-14T09:16:29;3.40;;;1.23;;
65715;SDS011;63484;52.054;8.518;2023-06-14T09:21:33;3.10;;;1.65;;
65715;SDS011;63484;52.054;8.518;2023-06-14T09:26:36;2.13;;;1.47;;
65715;SDS011;63484;52.054;8.518;2023-06-14T09:36:42;1.77;;;1.05;;
65715;SDS011;63484;52.054;8.518;2023-06-14T09:41:44;7.03;;;1.48;;
65715;SDS011;63484;52.054;8.518;2023-06-14T09:46:47;8.93;;;1.67;;
65715;SDS011;63484;52.054;8.518;2023-06-14T09:51:50;5.65;;;1.30;;
65715;SDS011;63484;52.054;8.518;2023-06-14T09:56:54;2.10;;;1.33;;
65715;SDS011;63484;52.054;8.518;2023-06-14T10:02:00;1.83;;;1.40;;
65715;SDS011;63484;52.054;8.518;2023-06-14T10:07:09;3.17;;;1.40;;
65715;SDS011;63484;52.054;8.518;2023-06-14T10:12:12;1.92;;;1.25;;
65715;SDS011;63484;52.054;8.518;2023-06-14T10:17:24;2.40;;;1.40;;
65715;SDS011;63484;52.054;8.518;2023-06-14T10:22:30;6.13;;;1.40;;
65715;SDS011;63484;52.054;8.518;2023-06-14T10:27:35;3.08;;;1.35;;
65715;SDS011;63484;52.054;8.518;2023-06-14T10:32:48;4.30;;;1.30;;
65715;SDS011;63484;52.054;8.518;2023-06-14T10:38:08;1.50;;;1.30;;
65715;SDS011;63484;52.054;8.518;2023-06-14T10:43:23;1.45;;;1.20;;
65715;SDS011;63484;52.054;8.518;2023-06-14T10:48:30;5.80;;;1.52;;
65715;SDS011;63484;52.054;8.518;2023-06-14T10:53:38;4.35;;;1.30;;
65715;SDS011;63484;52.054;8.518;2023-06-14T10:58:41;5.35;;;1.45;;
65715;SDS011;63484;52.054;8.518;2023-06-14T11:03:51;6.47;;;1.58;;
65715;SDS011;63484;52.054;8.518;2023-06-14T11:09:11;5.38;;;1.55;;
65715;SDS011;63484;52.054;8.518;2023-06-14T11:14:36;3.40;;;1.58;;
65715;SDS011;63484;52.054;8.518;2023-06-14T11:19:39;2.47;;;1.40;;
65715;SDS011;63484;52.054;8.518;2023-06-14T11:24:42;2.42;;;1.23;;
65715;SDS011;63484;52.054;8.518;2023-06-14T11:29:47;1.20;;;1.10;;
65715;SDS011;63484;52.054;8.518;2023-06-14T11:34:51;4.82;;;1.27;;
65715;SDS011;63484;52.054;8.518;2023-06-14T11:44:57;3.33;;;1.50;;
65715;SDS011;63484;52.054;8.518;2023-06-14T11:50:00;4.60;;;1.30;;
65715;SDS011;63484;52.054;8.518;2023-06-14T11:55:04;4.05;;;1.70;;
65715;SDS011;63484;52.054;8.518;2023-06-14T12:05:13;4.28;;;1.70;;
65715;SDS011;63484;52.054;8.518;2023-06-14T12:10:15;4.95;;;1.55;;
65715;SDS011;63484;52.054;8.518;2023-06-14T12:15:20;6.60;;;1.58;;
65715;SDS011;63484;52.054;8.518;2023-06-14T12:20:28;1.83;;;1.60;;
65715;SDS011;63484;52.054;8.518;2023-06-14T12:25:31;3.40;;;1.60;;
65715;SDS011;63484;52.054;8.518;2023-06-14T12:30:37;2.75;;;1.60;;
65715;SDS011;63484;52.054;8.518;2023-06-14T12:35:40;2.08;;;1.52;;
65715;SDS011;63484;52.054;8.518;2023-06-14T12:40:42;2.88;;;1.42;;
65715;SDS011;63484;52.054;8.518;2023-06-14T12:45:44;2.17;;;1.50;;
65715;SDS011;63484;52.054;8.518;2023-06-14T12:50:47;5.63;;;1.88;;
65715;SDS011;63484;52.054;8.518;2023-06-14T12:55:49;1.98;;;1.15;;
65715;SDS011;63484;52.054;8.518;2023-06-14T13:00:52;1.30;;;1.20;;
65715;SDS011;63484;52.054;8.518;2023-06-14T13:05:55;3.40;;;1.20;;
65715;SDS011;63484;52.054;8.518;2023-06-14T13:10:59;2.30;;;1.40;;
65715;SDS011;63484;52.054;8.518;2023-06-14T13:16:01;3.55;;;1.30;;
65715;SDS011;63484;52.054;8.518;2023-06-14T13:21:04;2.55;;;1.30;;
65715;SDS011;63484;52.054;8.518;2023-06-14T13:26:06;2.03;;;1.27;;
65715;SDS011;63484;52.054;8.518;2023-06-14T13:31:08;4.78;;;1.30;;
65715;SDS011;63484;52.054;8.518;2023-06-14T13:36:11;3.95;;;1.33;;
65715;SDS011;63484;52.054;8.518;2023-06-14T13:41:14;2.10;;;1.30;;
65715;SDS011;63484;52.054;8.518;2023-06-14T13:46:16;2.28;;;1.52;;
65715;SDS011;63484;52.054;8.518;2023-06-14T13:51:19;2.28;;;1.17;;
65715;SDS011;63484;52.054;8.518;2023-06-14T14:01:24;2.92;;;1.42;;
65715;SDS011;63484;52.054;8.518;2023-06-14T14:06:28;4.07;;;1.73;;
65715;SDS011;63484;52.054;8.518;2023-06-14T14:11:30;3.22;;;1.60;;
65715;SDS011;63484;52.054;8.518;2023-06-14T14:16:33;4.00;;;1.75;;
65715;SDS011;63484;52.054;8.518;2023-06-14T14:21:36;3.30;;;1.60;;
65715;SDS011;63484;52.054;8.518;2023-06-14T14:26:38;4.20;;;2.03;;
65715;SDS011;63484;52.054;8.518;2023-06-14T14:31:40;2.53;;;1.95;;
65715;SDS011;63484;52.054;8.518;2023-06-14T14:36:43;5.18;;;1.65;;
65715;SDS011;63484;52.054;8.518;2023-06-14T14:41:46;2.70;;;1.60;;
65715;SDS011;63484;52.054;8.518;2023-06-14T14:46:48;29.67;;;3.53;;
65715;SDS011;63484;52.054;8.518;2023-06-14T14:51:54;5.28;;;1.90;;
65715;SDS011;63484;52.054;8.518;2023-06-14T14:56:56;4.05;;;1.92;;
65715;SDS011;63484;52.054;8.518;2023-06-14T15:01:58;3.25;;;1.98;;
65715;SDS011;63484;52.054;8.518;2023-06-14T15:07:01;3.53;;;1.90;;
65715;SDS011;63484;52.054;8.518;2023-06-14T15:12:03;5.10;;;2.10;;
65715;SDS011;63484;52.054;8.518;2023-06-14T15:17:07;2.88;;;2.08;;
65715;SDS011;63484;52.054;8.518;2023-06-14T15:22:10;4.20;;;1.80;;
65715;SDS011;63484;52.054;8.518;2023-06-14T15:27:12;1.98;;;1.77;;
65715;SDS011;63484;52.054;8.518;2023-06-14T15:32:14;5.40;;;2.30;;
65715;SDS011;63484;52.054;8.518;2023-06-14T15:37:17;5.68;;;2.22;;
65715;SDS011;63484;52.054;8.518;2023-06-14T15:42:18;4.68;;;2.20;;
65715;SDS011;63484;52.054;8.518;2023-06-14T15:47:20;4.43;;;2.33;;
65715;SDS011;63484;52.054;8.518;2023-06-14T15:52:23;5.47;;;2.40;;
65715;SDS011;63484;52.054;8.518;2023-06-14T15:57:25;3.35;;;1.90;;
65715;SDS011;63484;52.054;8.518;2023-06-14T16:02:26;3.17;;;2.05;;
65715;SDS011;63484;52.054;8.518;2023-06-14T16:07:29;3.40;;;1.98;;
65715;SDS011;63484;52.054;8.518;2023-06-14T16:12:31;5.95;;;2.63;;
65715;SDS011;63484;52.054;8.518;2023-06-14T16:17:33;6.03;;;2.28;;
65715;SDS011;63484;52.054;8.518;2023-06-14T16:22:36;4.82;;;2.58;;
65715;SDS011;63484;52.054;8.518;2023-06-14T16:32:39;6.35;;;2.45;;
65715;SDS011;63484;52.054;8.518;2023-06-14T16:37:42;3.05;;;2.40;;
65715;SDS011;63484;52.054;8.518;2023-06-14T16:42:44;6.65;;;2.65;;
65715;SDS011;63484;52.054;8.518;2023-06-14T16:47:47;7.70;;;2.78;;
65715;SDS011;63484;52.054;8.518;2023-06-14T16:52:50;3.90;;;2.22;;
65715;SDS011;63484;52.054;8.518;2023-06-14T16:57:52;4.63;;;2.40;;
65715;SDS011;63484;52.054;8.518;2023-06-14T17:02:54;2.88;;;2.38;;
65715;SDS011;63484;52.054;8.518;2023-06-14T17:08:00;3.55;;;2.60;;
65715;SDS011;63484;52.054;8.518;2023-06-14T17:13:02;6.72;;;2.70;;
65715;SDS011;63484;52.054;8.518;2023-06-14T17:18:04;17.23;;;2.95;;
65715;SDS011;63484;52.054;8.518;2023-06-14T17:23:07;4.25;;;2.40;;
65715;SDS011;63484;52.054;8.518;2023-06-14T17:28:08;9.52;;;2.80;;
65715;SDS011;63484;52.054;8.518;2023-06-14T17:33:10;5.32;;;2.75;;
65715;SDS011;63484;52.054;8.518;2023-06-14T17:38:14;7.53;;;2.75;;
65715;SDS011;63484;52.054;8.518;2023-06-14T17:43:16;5.10;;;2.85;;
65715;SDS011;63484;52.054;8.518;2023-06-14T17:48:17;6.63;;;2.58;;
65715;SDS011;63484;52.054;8.518;2023-06-14T17:53:21;3.75;;;2.75;;
65715;SDS011;63484;52.054;8.518;2023-06-14T17:58:22;7.53;;;3.05;;
65715;SDS011;63484;52.054;8.518;2023-06-14T18:03:24;5.25;;;2.90;;
65715;SDS011;63484;52.054;8.518;2023-06-14T18:08:27;8.15;;;3.10;;
65715;SDS011;63484;52.054;8.518;2023-06-14T18:13:29;4.90;;;2.90;;
65715;SDS011;63484;52.054;8.518;2023-06-14T18:18:32;5.15;;;3.00;;
65715;SDS011;63484;52.054;8.518;2023-06-14T18:23:35;3.92;;;2.80;;
65715;SDS011;63484;52.054;8.518;2023-06-14T18:28:39;7.70;;;2.85;;
65715;SDS011;63484;52.054;8.518;2023-06-14T18:33:43;9.80;;;3.25;;
65715;SDS011;63484;52.054;8.518;2023-06-14T18:38:48;8.35;;;3.45;;
65715;SDS011;63484;52.054;8.518;2023-06-14T18:43:52;6.97;;;3.13;;
65715;SDS011;63484;52.054;8.518;2023-06-14T18:48:56;4.38;;;2.58;;
65715;SDS011;63484;52.054;8.518;2023-06-14T18:53:59;8.27;;;2.83;;
65715;SDS011;63484;52.054;8.518;2023-06-14T18:59:02;8.55;;;2.70;;
65715;SDS011;63484;52.054;8.518;2023-06-14T19:04:04;4.95;;;2.92;;
65715;SDS011;63484;52.054;8.518;2023-06-14T19:09:07;5.65;;;2.80;;
65715;SDS011;63484;52.054;8.518;2023-06-14T19:14:08;8.82;;;2.80;;
65715;SDS011;63484;52.054;8.518;2023-06-14T19:19:13;4.13;;;2.70;;
65715;SDS011;63484;52.054;8.518;2023-06-14T19:24:16;8.60;;;3.20;;
65715;SDS011;63484;52.054;8.518;2023-06-14T19:29:21;6.70;;;2.72;;
65715;SDS011;63484;52.054;8.518;2023-06-14T19:34:22;5.70;;;3.05;;
65715;SDS011;63484;52.054;8.518;2023-06-14T19:39:28;11.93;;;3.25;;
65715;SDS011;63484;52.054;8.518;2023-06-14T19:44:29;4.68;;;2.95;;
65715;SDS011;63484;52.054;8.518;2023-06-14T19:49:31;4.90;;;3.00;;
65715;SDS011;63484;52.054;8.518;2023-06-14T19:54:34;4.10;;;2.88;;
65715;SDS011;63484;52.054;8.518;2023-06-14T19:59:35;5.40;;;2.95;;
65715;SDS011;63484;52.054;8.518;2023-06-14T20:04:37;5.70;;;3.15;;
65715;SDS011;63484;52.054;8.518;2023-06-14T20:09:42;8.32;;;4.55;;
65715;SDS011;63484;52.054;8.518;2023-06-14T20:19:46;8.23;;;3.38;;
65715;SDS011;63484;52.054;8.518;2023-06-14T20:24:50;7.13;;;3.57;;
65715;SDS011;63484;52.054;8.518;2023-06-14T20:29:52;5.45;;;3.80;;
65715;SDS011;63484;52.054;8.518;2023-06-14T20:34:54;5.50;;;3.40;;
65715;SDS011;63484;52.054;8.518;2023-06-14T20:39:59;7.10;;;3.17;;
65715;SDS011;63484;52.054;8.518;2023-06-14T20:45:06;5.00;;;3.53;;
65715;SDS011;63484;52.054;8.518;2023-06-14T20:50:08;4.88;;;3.25;;
65715;SDS011;63484;52.054;8.518;2023-06-14T20:55:12;6.77;;;3.50;;
65715;SDS011;63484;52.054;8.518;2023-06-14T21:00:15;5.47;;;3.33;;
65715;SDS011;63484;52.054;8.518;2023-06-14T21:05:17;6.93;;;3.13;;
65715;SDS011;63484;52.054;8.518;2023-06-14T21:10:20;5.68;;;3.20;;
65715;SDS011;63484;52.054;8.518;2023-06-14T21:15:22;5.82;;;3.60;;
65715;SDS011;63484;52.054;8.518;2023-06-14T21:20:25;7.67;;;3.23;;
65715;SDS011;63484;52.054;8.518;2023-06-14T21:25:28;7.05;;;3.03;;
65715;SDS011;63484;52.054;8.518;2023-06-14T21:30:33;6.20;;;3.30;;
65715;SDS011;63484;52.054;8.518;2023-06-14T21:35:35;9.98;;;6.45;;
65715;SDS011;63484;52.054;8.518;2023-06-14T21:46:28;7.00;;;3.85;;
65715;SDS011;63484;52.054;8.518;2023-06-14T21:51:31;9.88;;;3.88;;
65715;SDS011;63484;52.054;8.518;2023-06-14T21:56:32;7.95;;;4.50;;
65715;SDS011;63484;52.054;8.518;2023-06-14T22:01:35;7.80;;;3.90;;
65715;SDS011;63484;52.054;8.518;2023-06-14T22:06:37;11.87;;;3.87;;
65715;SDS011;63484;52.054;8.518;2023-06-14T22:11:43;9.98;;;4.18;;
65715;SDS011;63484;52.054;8.518;2023-06-14T22:16:46;6.78;;;3.72;;
65715;SDS011;63484;52.054;8.518;2023-06-14T22:21:51;10.25;;;4.00;;
65715;SDS011;63484;52.054;8.518;2023-06-14T22:26:53;10.35;;;3.80;;
65715;SDS011;63484;52.054;8.518;2023-06-14T22:31:57;9.77;;;3.78;;
65715;SDS011;63484;52.054;8.518;2023-06-14T22:36:59;5.25;;;3.85;;
65715;SDS011;63484;52.054;8.518;2023-06-14T22:42:06;6.80;;;3.58;;
65715;SDS011;63484;52.054;8.518;2023-06-14T22:47:09;6.65;;;4.07;;
65715;SDS011;63484;52.054;8.518;2023-06-14T22:52:13;9.68;;;4.40;;
65715;SDS011;63484;52.054;8.518;2023-06-14T23:02:21;8.18;;;3.72;;
65715;SDS011;63484;52.054;8.518;2023-06-14T23:07:25;4.88;;;3.88;;
65715;SDS011;63484;52.054;8.518;2023-06-14T23:17:32;6.47;;;4.10;;
65715;SDS011;63484;52.054;8.518;2023-06-14T23:22:35;7.43;;;4.18;;
65715;SDS011;63484;52.054;8.518;2023-06-14T23:27:43;8.20;;;3.70;;
65715;SDS011;63484;52.054;8.518;2023-06-14T23:32:47;6.57;;;3.88;;
65715;SDS011;63484;52.054;8.518;2023-06-14T23:37:49;6.05;;;3.80;;
65715;SDS011;63484;52.054;8.518;2023-06-14T23:42:51;6.65;;;4.78;;
65715;SDS011;63484;52.054;8.518;2023-06-14T23:47:54;10.30;;;5.10;;
65715;SDS011;63484;52.054;8.518;2023-06-14T23:52:56;7.43;;;4.07;;
65715;SDS011;63484;52.054;8.518;2023-06-14T23:57:59;7.88;;;3.97;;
